sensor_id;sensor_type;location;lat;lon;timestamp;pressure;altitude;pressure_sealevel;temperature;humidity
23172;BME280;11754;42.664;23.594;2023-02-19T00:02:20;95716.81;;;5.44;59.15
23172;BME280;11754;42.664;23.594;2023-02-19T00:04:45;95711.75;;;5.42;58.91
23172;BME280;11754;42.664;23.594;2023-02-19T00:07:11;95726.22;;;5.46;58.95
23172;BME280;11754;42.664;23.594;2023-02-19T00:09:36;95718.38;;;5.46;59.20
23172;BME280;11754;42.664;23.594;2023-02-19T00:12:02;95711.47;;;5.45;58.81
23172;BME280;11754;42.664;23.594;2023-02-19T00:14:27;95708.41;;;5.40;58.97
23172;BME280;11754;42.664;23.594;2023-02-19T00:16:52;95698.47;;;5.34;59.19
23172;BME280;11754;42.664;23.594;2023-02-19T00:19:19;95714.03;;;5.36;59.34
23172;BME280;11754;42.664;23.594;2023-02-19T00:21:45;95712.50;;;5.33;59.38
23172;BME280;11754;42.664;23.594;2023-02-19T00:24:12;95711.09;;;5.29;59.13
23172;BME280;11754;42.664;23.594;2023-02-19T00:26:39;95705.88;;;5.29;59.33
23172;BME280;11754;42.664;23.594;2023-02-19T00:29:05;95706.84;;;5.28;59.06
23172;BME280;11754;42.664;23.594;2023-02-19T00:31:32;95711.09;;;5.29;59.16
23172;BME280;11754;42.664;23.594;2023-02-19T00:34:00;95698.16;;;5.27;59.52
23172;BME280;11754;42.664;23.594;2023-02-19T00:36:27;95695.94;;;5.23;59.73
23172;BME280;11754;42.664;23.594;2023-02-19T00:38:53;95692.59;;;5.21;59.45
23172;BME280;11754;42.664;23.594;2023-02-19T00:41:19;95667.28;;;5.00;59.80
23172;BME280;11754;42.664;23.594;2023-02-19T00:46:23;95692.22;;;5.04;60.34
23172;BME280;11754;42.664;23.594;2023-02-19T00:48:50;95687.38;;;5.00;60.50
23172;BME280;11754;42.664;23.594;2023-02-19T00:51:17;95679.78;;;4.97;60.00
23172;BME280;11754;42.664;23.594;2023-02-19T00:53:43;95686.34;;;4.91;60.65
23172;BME280;11754;42.664;23.594;2023-02-19T00:56:09;95681.88;;;4.82;60.45
23172;BME280;11754;42.664;23.594;2023-02-19T00:58:34;95675.25;;;4.78;61.00
23172;BME280;11754;42.664;23.594;2023-02-19T01:01:00;95675.47;;;4.75;61.08
23172;BME280;11754;42.664;23.594;2023-02-19T01:03:26;95677.41;;;4.73;60.54
23172;BME280;11754;42.664;23.594;2023-02-19T01:05:52;95683.56;;;4.72;60.90
23172;BME280;11754;42.664;23.594;2023-02-19T01:08:19;95675.97;;;4.69;60.56
23172;BME280;11754;42.664;23.594;2023-02-19T01:10:45;95667.13;;;4.60;60.32
23172;BME280;11754;42.664;23.594;2023-02-19T01:13:10;95667.88;;;4.51;61.00
23172;BME280;11754;42.664;23.594;2023-02-19T01:15:36;95663.47;;;4.51;60.80
23172;BME280;11754;42.664;23.594;2023-02-19T01:18:01;95651.63;;;4.47;61.35
23172;BME280;11754;42.664;23.594;2023-02-19T01:20:27;95652.69;;;4.45;61.12
23172;BME280;11754;42.664;23.594;2023-02-19T01:22:53;95644.47;;;4.49;61.20
23172;BME280;11754;42.664;23.594;2023-02-19T01:25:18;95641.88;;;4.49;60.94
23172;BME280;11754;42.664;23.594;2023-02-19T01:27:44;95654.69;;;4.52;61.16
23172;BME280;11754;42.664;23.594;2023-02-19T01:30:09;95651.25;;;4.52;61.03
23172;BME280;11754;42.664;23.594;2023-02-19T01:32:35;95659.34;;;4.49;60.72
23172;BME280;11754;42.664;23.594;2023-02-19T01:35:00;95654.97;;;4.38;61.00
23172;BME280;11754;42.664;23.594;2023-02-19T01:37:26;95659.94;;;4.41;60.70
23172;BME280;11754;42.664;23.594;2023-02-19T01:39:51;95671.09;;;4.43;61.10
23172;BME280;11754;42.664;23.594;2023-02-19T01:42:17;95687.03;;;4.40;61.52
23172;BME280;11754;42.664;23.594;2023-02-19T01:47:10;95688.91;;;4.38;61.69
23172;BME280;11754;42.664;23.594;2023-02-19T01:49:49;95685.50;;;4.38;62.38
23172;BME280;11754;42.664;23.594;2023-02-19T01:52:23;95696.38;;;4.43;62.26
23172;BME280;11754;42.664;23.594;2023-02-19T01:54:50;95703.28;;;4.44;61.53
23172;BME280;11754;42.664;23.594;2023-02-19T01:57:22;95711.94;;;4.44;61.63
23172;BME280;11754;42.664;23.594;2023-02-19T01:59:51;95708.16;;;4.37;62.06
23172;BME280;11754;42.664;23.594;2023-02-19T02:02:20;95708.16;;;4.37;61.68
23172;BME280;11754;42.664;23.594;2023-02-19T02:04:46;95706.63;;;4.34;62.01
23172;BME280;11754;42.664;23.594;2023-02-19T02:07:12;95709.09;;;4.36;62.01
23172;BME280;11754;42.664;23.594;2023-02-19T02:09:56;95700.81;;;4.31;61.83
23172;BME280;11754;42.664;23.594;2023-02-19T02:12:40;95692.75;;;4.34;62.30
23172;BME280;11754;42.664;23.594;2023-02-19T02:15:06;95692.25;;;4.29;62.38
23172;BME280;11754;42.664;23.594;2023-02-19T02:17:37;95690.16;;;4.23;62.62
23172;BME280;11754;42.664;23.594;2023-02-19T02:23:13;95678.72;;;4.35;62.47
23172;BME280;11754;42.664;23.594;2023-02-19T02:31:34;95681.72;;;4.63;63.39
23172;BME280;11754;42.664;23.594;2023-02-19T02:34:10;95694.41;;;4.67;63.50
23172;BME280;11754;42.664;23.594;2023-02-19T02:36:39;95692.31;;;4.82;61.98
23172;BME280;11754;42.664;23.594;2023-02-19T02:39:09;95685.50;;;4.70;61.50
23172;BME280;11754;42.664;23.594;2023-02-19T02:41:44;95685.06;;;4.53;61.10
23172;BME280;11754;42.664;23.594;2023-02-19T02:44:10;95689.13;;;4.46;61.26
23172;BME280;11754;42.664;23.594;2023-02-19T02:46:40;95682.88;;;4.38;61.74
23172;BME280;11754;42.664;23.594;2023-02-19T02:49:25;95701.25;;;4.36;62.09
23172;BME280;11754;42.664;23.594;2023-02-19T02:51:52;95697.97;;;4.34;62.01
23172;BME280;11754;42.664;23.594;2023-02-19T02:54:25;95707.69;;;4.32;61.83
23172;BME280;11754;42.664;23.594;2023-02-19T02:57:10;95705.31;;;4.29;62.09
23172;BME280;11754;42.664;23.594;2023-02-19T02:59:39;95700.09;;;4.29;62.45
23172;BME280;11754;42.664;23.594;2023-02-19T03:02:11;95703.66;;;4.28;62.20
23172;BME280;11754;42.664;23.594;2023-02-19T03:05:17;95712.91;;;4.32;61.87
23172;BME280;11754;42.664;23.594;2023-02-19T03:08:07;95713.63;;;4.34;61.88
23172;BME280;11754;42.664;23.594;2023-02-19T03:11:08;95703.75;;;4.38;61.54
23172;BME280;11754;42.664;23.594;2023-02-19T03:16:55;95702.94;;;4.37;61.55
23172;BME280;11754;42.664;23.594;2023-02-19T03:19:46;95704.59;;;4.38;61.85
23172;BME280;11754;42.664;23.594;2023-02-19T03:22:24;95711.72;;;4.36;61.72
23172;BME280;11754;42.664;23.594;2023-02-19T03:25:01;95718.63;;;4.37;61.64
23172;BME280;11754;42.664;23.594;2023-02-19T03:27:48;95734.03;;;4.40;61.48
23172;BME280;11754;42.664;23.594;2023-02-19T03:30:19;95721.91;;;4.39;61.25
23172;BME280;11754;42.664;23.594;2023-02-19T03:33:08;95731.63;;;4.48;61.44
23172;BME280;11754;42.664;23.594;2023-02-19T03:35:45;95727.38;;;4.47;61.57
23172;BME280;11754;42.664;23.594;2023-02-19T03:38:24;95735.78;;;4.51;61.35
23172;BME280;11754;42.664;23.594;2023-02-19T03:40:57;95740.69;;;4.44;60.97
23172;BME280;11754;42.664;23.594;2023-02-19T03:46:13;95751.50;;;4.28;61.10
23172;BME280;11754;42.664;23.594;2023-02-19T03:49:00;95748.28;;;4.25;61.05
23172;BME280;11754;42.664;23.594;2023-02-19T03:51:40;95751.88;;;4.13;61.07
23172;BME280;11754;42.664;23.594;2023-02-19T03:57:03;95746.78;;;3.89;62.23
23172;BME280;11754;42.664;23.594;2023-02-19T04:02:12;95758.38;;;3.73;62.77
23172;BME280;11754;42.664;23.594;2023-02-19T04:04:43;95761.81;;;3.74;62.69
23172;BME280;11754;42.664;23.594;2023-02-19T04:07:10;95756.84;;;3.71;62.66
23172;BME280;11754;42.664;23.594;2023-02-19T04:09:40;95774.19;;;3.72;62.85
23172;BME280;11754;42.664;23.594;2023-02-19T04:12:07;95771.56;;;3.72;62.72
23172;BME280;11754;42.664;23.594;2023-02-19T04:14:53;95770.59;;;3.73;62.67
23172;BME280;11754;42.664;23.594;2023-02-19T04:17:26;95770.13;;;3.68;62.97
23172;BME280;11754;42.664;23.594;2023-02-19T04:19:53;95778.78;;;3.68;63.12
23172;BME280;11754;42.664;23.594;2023-02-19T04:22:21;95780.53;;;3.68;63.05
23172;BME280;11754;42.664;23.594;2023-02-19T04:24:49;95769.66;;;3.63;63.01
23172;BME280;11754;42.664;23.594;2023-02-19T04:27:16;95784.00;;;3.68;63.36
23172;BME280;11754;42.664;23.594;2023-02-19T04:29:42;95774.19;;;3.72;63.41
23172;BME280;11754;42.664;23.594;2023-02-19T04:32:09;95771.44;;;3.73;63.45
23172;BME280;11754;42.664;23.594;2023-02-19T04:34:35;95782.25;;;3.80;63.21
23172;BME280;11754;42.664;23.594;2023-02-19T04:37:00;95772.75;;;3.79;63.11
23172;BME280;11754;42.664;23.594;2023-02-19T04:39:26;95779.63;;;3.80;63.53
23172;BME280;11754;42.664;23.594;2023-02-19T04:41:51;95779.13;;;3.75;63.75
23172;BME280;11754;42.664;23.594;2023-02-19T04:44:16;95772.72;;;3.68;63.93
23172;BME280;11754;42.664;23.594;2023-02-19T04:46:42;95774.84;;;3.63;65.09
23172;BME280;11754;42.664;23.594;2023-02-19T04:49:07;95765.25;;;3.63;65.64
23172;BME280;11754;42.664;23.594;2023-02-19T04:51:32;95770.59;;;3.73;66.23
23172;BME280;11754;42.664;23.594;2023-02-19T04:53:58;95766.34;;;3.83;66.37
23172;BME280;11754;42.664;23.594;2023-02-19T04:56:23;95785.91;;;4.00;66.70
23172;BME280;11754;42.664;23.594;2023-02-19T04:58:49;95787.81;;;4.09;66.18
23172;BME280;11754;42.664;23.594;2023-02-19T05:01:14;95785.09;;;4.10;65.87
23172;BME280;11754;42.664;23.594;2023-02-19T05:03:40;95791.50;;;4.18;66.01
23172;BME280;11754;42.664;23.594;2023-02-19T05:06:08;95795.78;;;4.30;65.58
23172;BME280;11754;42.664;23.594;2023-02-19T05:08:34;95791.50;;;4.40;66.03
23172;BME280;11754;42.664;23.594;2023-02-19T05:11:01;95801.78;;;4.53;65.63
23172;BME280;11754;42.664;23.594;2023-02-19T05:13:27;95804.31;;;4.54;65.68
23172;BME280;11754;42.664;23.594;2023-02-19T05:15:57;95795.50;;;4.55;65.45
23172;BME280;11754;42.664;23.594;2023-02-19T05:18:22;95809.03;;;4.61;65.35
23172;BME280;11754;42.664;23.594;2023-02-19T05:20:49;95810.19;;;4.68;64.84
23172;BME280;11754;42.664;23.594;2023-02-19T05:23:14;95810.69;;;4.73;64.62
23172;BME280;11754;42.664;23.594;2023-02-19T05:25:39;95813.03;;;4.76;63.85
23172;BME280;11754;42.664;23.594;2023-02-19T05:28:05;95819.19;;;4.86;63.80
23172;BME280;11754;42.664;23.594;2023-02-19T05:30:49;95826.53;;;4.92;63.53
23172;BME280;11754;42.664;23.594;2023-02-19T05:33:16;95819.16;;;4.97;63.09
23172;BME280;11754;42.664;23.594;2023-02-19T05:35:43;95824.59;;;5.05;62.85
23172;BME280;11754;42.664;23.594;2023-02-19T05:38:09;95821.22;;;5.15;62.51
23172;BME280;11754;42.664;23.594;2023-02-19T05:40:35;95823.69;;;5.27;61.94
23172;BME280;11754;42.664;23.594;2023-02-19T05:43:00;95832.56;;;5.36;61.77
23172;BME280;11754;42.664;23.594;2023-02-19T05:45:25;95833.47;;;5.46;61.20
23172;BME280;11754;42.664;23.594;2023-02-19T05:47:51;95829.16;;;5.57;60.77
23172;BME280;11754;42.664;23.594;2023-02-19T05:50:16;95813.44;;;5.57;60.28
23172;BME280;11754;42.664;23.594;2023-02-19T05:52:42;95817.28;;;5.52;60.46
23172;BME280;11754;42.664;23.594;2023-02-19T05:55:09;95821.16;;;5.58;60.72
23172;BME280;11754;42.664;23.594;2023-02-19T05:57:42;95819.00;;;5.63;60.66
23172;BME280;11754;42.664;23.594;2023-02-19T06:00:09;95820.16;;;5.70;61.01
23172;BME280;11754;42.664;23.594;2023-02-19T06:02:35;95815.28;;;5.87;60.95
23172;BME280;11754;42.664;23.594;2023-02-19T06:05:01;95819.56;;;6.09;61.00
23172;BME280;11754;42.664;23.594;2023-02-19T06:07:26;95831.38;;;6.24;60.71
23172;BME280;11754;42.664;23.594;2023-02-19T06:09:52;95825.25;;;6.44;60.28
23172;BME280;11754;42.664;23.594;2023-02-19T06:12:17;95828.88;;;6.63;59.80
23172;BME280;11754;42.664;23.594;2023-02-19T06:14:43;95833.94;;;6.85;59.05
23172;BME280;11754;42.664;23.594;2023-02-19T06:17:08;95828.19;;;7.11;58.43
23172;BME280;11754;42.664;23.594;2023-02-19T06:19:33;95848.06;;;7.42;57.93
23172;BME280;11754;42.664;23.594;2023-02-19T06:21:59;95845.03;;;7.66;57.43
23172;BME280;11754;42.664;23.594;2023-02-19T06:24:24;95855.69;;;7.84;56.57
23172;BME280;11754;42.664;23.594;2023-02-19T06:26:50;95855.25;;;7.99;56.43
23172;BME280;11754;42.664;23.594;2023-02-19T06:29:15;95849.16;;;8.08;55.65
23172;BME280;11754;42.664;23.594;2023-02-19T06:31:41;95861.25;;;8.28;54.93
23172;BME280;11754;42.664;23.594;2023-02-19T06:34:06;95855.28;;;8.46;54.55
23172;BME280;11754;42.664;23.594;2023-02-19T06:36:32;95853.59;;;8.54;53.72
23172;BME280;11754;42.664;23.594;2023-02-19T06:39:01;95867.41;;;8.66;52.92
23172;BME280;11754;42.664;23.594;2023-02-19T06:41:27;95873.19;;;8.70;52.16
23172;BME280;11754;42.664;23.594;2023-02-19T06:43:52;95884.94;;;8.75;51.87
23172;BME280;11754;42.664;23.594;2023-02-19T06:46:18;95879.34;;;8.88;51.69
23172;BME280;11754;42.664;23.594;2023-02-19T06:48:44;95879.00;;;9.01;50.96
23172;BME280;11754;42.664;23.594;2023-02-19T06:51:15;95886.63;;;9.22;50.61
23172;BME280;11754;42.664;23.594;2023-02-19T06:53:43;95883.47;;;9.18;50.28
23172;BME280;11754;42.664;23.594;2023-02-19T06:58:52;95881.94;;;9.15;50.96
23172;BME280;11754;42.664;23.594;2023-02-19T07:01:17;95886.88;;;9.28;50.41
23172;BME280;11754;42.664;23.594;2023-02-19T07:03:43;95876.81;;;9.42;50.29
23172;BME280;11754;42.664;23.594;2023-02-19T07:06:08;95874.19;;;9.59;49.78
23172;BME280;11754;42.664;23.594;2023-02-19T07:08:34;95872.91;;;9.81;49.73
23172;BME280;11754;42.664;23.594;2023-02-19T07:10:59;95871.91;;;10.00;48.94
23172;BME280;11754;42.664;23.594;2023-02-19T07:13:25;95875.50;;;10.17;48.87
23172;BME280;11754;42.664;23.594;2023-02-19T07:15:57;95872.38;;;10.40;48.21
23172;BME280;11754;42.664;23.594;2023-02-19T07:18:23;95865.66;;;10.45;47.78
23172;BME280;11754;42.664;23.594;2023-02-19T07:20:48;95857.56;;;10.39;48.35
23172;BME280;11754;42.664;23.594;2023-02-19T07:23:14;95858.91;;;10.43;49.00
23172;BME280;11754;42.664;23.594;2023-02-19T07:25:39;95852.94;;;10.41;49.35
23172;BME280;11754;42.664;23.594;2023-02-19T07:28:05;95854.59;;;10.42;49.34
23172;BME280;11754;42.664;23.594;2023-02-19T07:30:31;95851.81;;;10.43;49.29
23172;BME280;11754;42.664;23.594;2023-02-19T07:32:56;95852.38;;;10.63;49.44
23172;BME280;11754;42.664;23.594;2023-02-19T07:35:22;95840.75;;;10.74;49.00
23172;BME280;11754;42.664;23.594;2023-02-19T07:37:47;95843.88;;;10.77;48.20
23172;BME280;11754;42.664;23.594;2023-02-19T07:40:12;95839.03;;;11.07;47.33
23172;BME280;11754;42.664;23.594;2023-02-19T07:42:38;95849.25;;;10.94;47.76
23172;BME280;11754;42.664;23.594;2023-02-19T07:45:04;95834.75;;;10.98;47.69
23172;BME280;11754;42.664;23.594;2023-02-19T07:47:29;95832.25;;;11.55;46.99
23172;BME280;11754;42.664;23.594;2023-02-19T07:49:54;95844.50;;;11.89;46.38
23172;BME280;11754;42.664;23.594;2023-02-19T07:52:20;95838.97;;;12.47;44.55
23172;BME280;11754;42.664;23.594;2023-02-19T07:54:45;95839.84;;;12.87;43.09
23172;BME280;11754;42.664;23.594;2023-02-19T07:57:10;95835.16;;;13.37;42.05
23172;BME280;11754;42.664;23.594;2023-02-19T07:59:36;95833.78;;;13.72;41.79
23172;BME280;11754;42.664;23.594;2023-02-19T08:02:01;95830.50;;;13.93;41.26
23172;BME280;11754;42.664;23.594;2023-02-19T08:04:48;95834.88;;;14.38;39.93
23172;BME280;11754;42.664;23.594;2023-02-19T08:07:13;95828.84;;;14.45;40.26
23172;BME280;11754;42.664;23.594;2023-02-19T08:09:39;95823.22;;;14.77;39.36
23172;BME280;11754;42.664;23.594;2023-02-19T08:12:04;95823.28;;;15.13;38.92
23172;BME280;11754;42.664;23.594;2023-02-19T08:15:08;95826.25;;;15.40;37.90
23172;BME280;11754;42.664;23.594;2023-02-19T08:17:33;95829.34;;;15.80;37.41
23172;BME280;11754;42.664;23.594;2023-02-19T08:19:59;95840.34;;;16.20;36.65
23172;BME280;11754;42.664;23.594;2023-02-19T08:22:24;95829.41;;;16.92;35.90
23172;BME280;11754;42.664;23.594;2023-02-19T08:24:49;95828.41;;;17.54;34.75
23172;BME280;11754;42.664;23.594;2023-02-19T08:27:15;95823.50;;;17.03;35.21
23172;BME280;11754;42.664;23.594;2023-02-19T08:29:40;95837.22;;;17.48;34.46
23172;BME280;11754;42.664;23.594;2023-02-19T08:32:05;95824.22;;;18.07;34.04
23172;BME280;11754;42.664;23.594;2023-02-19T08:34:31;95824.03;;;18.55;33.39
23172;BME280;11754;42.664;23.594;2023-02-19T08:36:56;95825.91;;;19.26;32.13
23172;BME280;11754;42.664;23.594;2023-02-19T08:39:22;95823.06;;;20.04;31.05
23172;BME280;11754;42.664;23.594;2023-02-19T08:41:47;95820.50;;;20.15;30.04
23172;BME280;11754;42.664;23.594;2023-02-19T08:44:12;95812.25;;;20.17;30.40
23172;BME280;11754;42.664;23.594;2023-02-19T08:46:38;95809.72;;;20.72;29.72
23172;BME280;11754;42.664;23.594;2023-02-19T08:49:03;95810.22;;;21.43;28.85
23172;BME280;11754;42.664;23.594;2023-02-19T08:51:29;95800.41;;;22.08;27.76
23172;BME280;11754;42.664;23.594;2023-02-19T08:53:54;95808.75;;;21.58;27.61
23172;BME280;11754;42.664;23.594;2023-02-19T08:56:20;95805.63;;;20.70;28.23
23172;BME280;11754;42.664;23.594;2023-02-19T08:58:46;95802.28;;;20.56;28.54
23172;BME280;11754;42.664;23.594;2023-02-19T09:01:15;95794.00;;;21.31;27.38
23172;BME280;11754;42.664;23.594;2023-02-19T09:03:42;95793.44;;;20.49;28.46
23172;BME280;11754;42.664;23.594;2023-02-19T09:06:12;95782.97;;;19.59;29.66
23172;BME280;11754;42.664;23.594;2023-02-19T09:08:38;95779.63;;;20.52;28.28
23172;BME280;11754;42.664;23.594;2023-02-19T09:11:04;95777.91;;;20.32;28.05
23172;BME280;11754;42.664;23.594;2023-02-19T09:13:31;95770.38;;;21.58;27.10
23172;BME280;11754;42.664;23.594;2023-02-19T09:15:57;95774.59;;;20.99;27.53
23172;BME280;11754;42.664;23.594;2023-02-19T09:18:23;95762.44;;;21.63;27.37
23172;BME280;11754;42.664;23.594;2023-02-19T09:20:49;95754.13;;;23.98;25.27
23172;BME280;11754;42.664;23.594;2023-02-19T09:23:15;95757.97;;;24.69;23.76
23172;BME280;11754;42.664;23.594;2023-02-19T09:25:40;95743.97;;;25.55;22.80
23172;BME280;11754;42.664;23.594;2023-02-19T09:28:05;95737.25;;;26.12;22.13
23172;BME280;11754;42.664;23.594;2023-02-19T09:30:31;95721.59;;;26.51;21.67
23172;BME280;11754;42.664;23.594;2023-02-19T09:32:56;95716.81;;;26.64;21.30
23172;BME280;11754;42.664;23.594;2023-02-19T09:35:21;95727.94;;;27.25;20.65
23172;BME280;11754;42.664;23.594;2023-02-19T09:37:47;95725.88;;;27.58;20.68
23172;BME280;11754;42.664;23.594;2023-02-19T09:40:12;95722.72;;;28.58;19.55
23172;BME280;11754;42.664;23.594;2023-02-19T09:42:40;95738.97;;;29.53;18.17
23172;BME280;11754;42.664;23.594;2023-02-19T09:45:09;95729.94;;;31.48;17.57
23172;BME280;11754;42.664;23.594;2023-02-19T09:47:39;95721.72;;;31.29;16.88
23172;BME280;11754;42.664;23.594;2023-02-19T09:50:07;95721.34;;;31.78;16.83
23172;BME280;11754;42.664;23.594;2023-02-19T09:52:46;95710.09;;;32.37;16.37
23172;BME280;11754;42.664;23.594;2023-02-19T09:55:20;95704.78;;;34.19;14.95
23172;BME280;11754;42.664;23.594;2023-02-19T09:57:49;95700.38;;;35.43;14.14
23172;BME280;11754;42.664;23.594;2023-02-19T10:00:35;95706.28;;;36.20;13.56
23172;BME280;11754;42.664;23.594;2023-02-19T10:03:08;95694.66;;;39.17;11.80
23172;BME280;11754;42.664;23.594;2023-02-19T10:05:37;95685.38;;;40.55;10.96
23172;BME280;11754;42.664;23.594;2023-02-19T10:08:06;95678.56;;;41.80;10.20
23172;BME280;11754;42.664;23.594;2023-02-19T10:10:35;95672.78;;;41.69;10.35
23172;BME280;11754;42.664;23.594;2023-02-19T10:13:21;95662.75;;;40.22;10.70
23172;BME280;11754;42.664;23.594;2023-02-19T10:15:52;95653.50;;;42.11;9.96
23172;BME280;11754;42.664;23.594;2023-02-19T10:18:21;95644.03;;;44.03;8.87
23172;BME280;11754;42.664;23.594;2023-02-19T10:20:49;95634.44;;;45.09;8.73
23172;BME280;11754;42.664;23.594;2023-02-19T10:23:16;95632.78;;;45.56;8.34
23172;BME280;11754;42.664;23.594;2023-02-19T10:25:52;95622.69;;;46.07;8.25
23172;BME280;11754;42.664;23.594;2023-02-19T10:28:21;95617.19;;;46.28;7.84
23172;BME280;11754;42.664;23.594;2023-02-19T10:30:52;95605.44;;;45.14;8.19
23172;BME280;11754;42.664;23.594;2023-02-19T10:33:19;95601.84;;;45.79;8.11
23172;BME280;11754;42.664;23.594;2023-02-19T10:35:58;95600.34;;;45.92;7.67
23172;BME280;11754;42.664;23.594;2023-02-19T10:38:32;95610.84;;;46.53;7.40
23172;BME280;11754;42.664;23.594;2023-02-19T10:43:29;95573.47;;;46.97;7.65
23172;BME280;11754;42.664;23.594;2023-02-19T10:46:02;95571.59;;;47.96;7.10
23172;BME280;11754;42.664;23.594;2023-02-19T10:48:31;95565.75;;;48.46;6.89
23172;BME280;11754;42.664;23.594;2023-02-19T10:51:03;95561.34;;;47.71;6.88
23172;BME280;11754;42.664;23.594;2023-02-19T10:53:41;95555.16;;;48.71;6.58
23172;BME280;11754;42.664;23.594;2023-02-19T10:56:23;95547.44;;;50.57;5.99
23172;BME280;11754;42.664;23.594;2023-02-19T10:58:53;95541.00;;;51.90;5.22
23172;BME280;11754;42.664;23.594;2023-02-19T11:01:23;95534.50;;;49.03;6.08
23172;BME280;11754;42.664;23.594;2023-02-19T11:04:15;95527.31;;;48.57;6.53
23172;BME280;11754;42.664;23.594;2023-02-19T11:06:42;95522.59;;;50.56;5.60
23172;BME280;11754;42.664;23.594;2023-02-19T11:11:49;95515.09;;;52.68;4.76
23172;BME280;11754;42.664;23.594;2023-02-19T11:14:18;95509.06;;;53.32;4.45
23172;BME280;11754;42.664;23.594;2023-02-19T11:16:48;95500.41;;;52.77;4.87
23172;BME280;11754;42.664;23.594;2023-02-19T11:21:50;95501.38;;;50.28;5.44
23172;BME280;11754;42.664;23.594;2023-02-19T11:24:31;95500.84;;;47.11;6.63
23172;BME280;11754;42.664;23.594;2023-02-19T11:27:00;95494.59;;;48.47;6.32
23172;BME280;11754;42.664;23.594;2023-02-19T11:29:26;95486.63;;;49.96;6.04
23172;BME280;11754;42.664;23.594;2023-02-19T11:31:54;95481.91;;;50.67;5.05
23172;BME280;11754;42.664;23.594;2023-02-19T11:37:06;95469.75;;;52.13;5.22
23172;BME280;11754;42.664;23.594;2023-02-19T11:39:32;95465.81;;;52.44;5.30
23172;BME280;11754;42.664;23.594;2023-02-19T11:52:30;95449.44;;;54.86;4.13
23172;BME280;11754;42.664;23.594;2023-02-19T12:00:52;95423.16;;;57.65;3.54
23172;BME280;11754;42.664;23.594;2023-02-19T12:06:43;95422.63;;;58.51;2.89
23172;BME280;11754;42.664;23.594;2023-02-19T12:09:40;95413.50;;;58.95;2.98
23172;BME280;11754;42.664;23.594;2023-02-19T12:26:29;95374.00;;;58.58;3.30
23172;BME280;11754;42.664;23.594;2023-02-19T12:48:05;95341.50;;;58.59;2.50
23172;BME280;11754;42.664;23.594;2023-02-19T12:50:34;95330.16;;;58.50;2.68
23172;BME280;11754;42.664;23.594;2023-02-19T12:53:22;95321.75;;;58.56;2.58
23172;BME280;11754;42.664;23.594;2023-02-19T12:55:49;95316.63;;;56.11;2.99
23172;BME280;11754;42.664;23.594;2023-02-19T12:58:34;95303.25;;;56.11;3.53
23172;BME280;11754;42.664;23.594;2023-02-19T13:01:02;95302.50;;;56.94;3.26
23172;BME280;11754;42.664;23.594;2023-02-19T13:03:47;95302.94;;;57.01;3.19
23172;BME280;11754;42.664;23.594;2023-02-19T13:06:50;95291.00;;;56.97;2.75
23172;BME280;11754;42.664;23.594;2023-02-19T13:09:46;95289.06;;;57.64;2.90
23172;BME280;11754;42.664;23.594;2023-02-19T13:12:20;95283.13;;;58.10;2.41
23172;BME280;11754;42.664;23.594;2023-02-19T13:14:56;95278.94;;;58.30;2.96
23172;BME280;11754;42.664;23.594;2023-02-19T13:19:57;95276.19;;;58.50;2.74
23172;BME280;11754;42.664;23.594;2023-02-19T13:22:35;95271.19;;;58.69;2.66
23172;BME280;11754;42.664;23.594;2023-02-19T13:25:24;95260.44;;;58.34;2.67
23172;BME280;11754;42.664;23.594;2023-02-19T13:28:17;95251.50;;;58.80;2.40
23172;BME280;11754;42.664;23.594;2023-02-19T13:30:59;95249.63;;;58.92;2.35
23172;BME280;11754;42.664;23.594;2023-02-19T13:33:41;95255.06;;;58.51;2.39
23172;BME280;11754;42.664;23.594;2023-02-19T13:36:13;95239.63;;;58.67;2.85
23172;BME280;11754;42.664;23.594;2023-02-19T13:38:42;95240.63;;;58.93;2.55
23172;BME280;11754;42.664;23.594;2023-02-19T13:41:41;95244.91;;;58.59;2.33
23172;BME280;11754;42.664;23.594;2023-02-19T13:44:23;95238.63;;;58.55;2.81
23172;BME280;11754;42.664;23.594;2023-02-19T13:46:50;95235.50;;;58.83;2.33
23172;BME280;11754;42.664;23.594;2023-02-19T13:51:49;95222.06;;;58.00;2.22
23172;BME280;11754;42.664;23.594;2023-02-19T13:57:24;95224.22;;;58.05;2.77
23172;BME280;11754;42.664;23.594;2023-02-19T13:59:52;95223.72;;;57.16;3.01
23172;BME280;11754;42.664;23.594;2023-02-19T14:05:04;95198.72;;;52.49;4.18
23172;BME280;11754;42.664;23.594;2023-02-19T14:07:37;95193.94;;;51.59;4.25
23172;BME280;11754;42.664;23.594;2023-02-19T14:12:58;95204.53;;;46.28;6.36
23172;BME280;11754;42.664;23.594;2023-02-19T14:17:49;95203.91;;;41.35;8.71
23172;BME280;11754;42.664;23.594;2023-02-19T14:30:27;95211.34;;;34.92;12.58
23172;BME280;11754;42.664;23.594;2023-02-19T14:32:53;95197.28;;;37.24;11.55
23172;BME280;11754;42.664;23.594;2023-02-19T14:35:25;95195.78;;;39.16;10.34
23172;BME280;11754;42.664;23.594;2023-02-19T14:37:55;95176.09;;;40.58;9.48
23172;BME280;11754;42.664;23.594;2023-02-19T14:40:33;95187.69;;;42.43;8.41
23172;BME280;11754;42.664;23.594;2023-02-19T14:43:03;95197.22;;;43.68;7.94
23172;BME280;11754;42.664;23.594;2023-02-19T14:45:36;95185.91;;;43.43;8.07
23172;BME280;11754;42.664;23.594;2023-02-19T14:48:12;95178.88;;;41.77;8.83
23172;BME280;11754;42.664;23.594;2023-02-19T14:50:40;95180.22;;;40.10;9.37
23172;BME280;11754;42.664;23.594;2023-02-19T14:53:07;95175.41;;;38.17;10.22
23172;BME280;11754;42.664;23.594;2023-02-19T14:55:35;95179.13;;;36.41;11.13
23172;BME280;11754;42.664;23.594;2023-02-19T14:58:12;95187.13;;;34.94;12.17
23172;BME280;11754;42.664;23.594;2023-02-19T15:00:41;95187.13;;;33.78;12.90
23172;BME280;11754;42.664;23.594;2023-02-19T15:03:32;95179.69;;;33.52;13.07
23172;BME280;11754;42.664;23.594;2023-02-19T15:06:11;95172.59;;;34.64;12.78
23172;BME280;11754;42.664;23.594;2023-02-19T15:08:45;95160.63;;;35.96;11.91
23172;BME280;11754;42.664;23.594;2023-02-19T15:11:16;95164.63;;;35.77;11.90